desko.kg alexa rank chart, desko.kg alexa rank daily changes

desko.kg alexa rank chart, desko.kg alexa rank daily changes

desko.kg
Actual rank:
347 678

RANK HISTORY

Date Rank Diff
2018/10/21 347 678 -512 750
2018/10/20 860 428 +103 666
2018/10/19 756 762 -33 235
2018/10/18 789 997 -30 696
2018/10/17 820 693 -49 905
2018/10/16 870 598 +41 585
2018/10/15 829 013 -30 744
2018/10/13 859 757 +13 380
2018/10/12 846 377 +459 141
2018/10/11 387 236 +195 903
2018/10/10 191 333 -65 224
2018/10/09 256 557 -550 157
2018/10/08 806 714 +528 309
2018/10/06 278 405 -445 207
2018/10/05 723 612 +365 483
2018/10/02 358 129 -196 866
2018/10/01 554 995 -260 041
2018/09/30 815 036 +101 217
2018/09/29 713 819 -167 415
2018/09/28 881 234 -7 633
2018/09/27 888 867 +265 259
2018/09/26 623 608 -69 912
2018/09/25 693 520 -59 314
2018/09/24 752 834 -88 183
2018/09/23 841 017 -152 802
2018/09/22 993 819 +698 351
2018/09/21 295 468 -476 421
2018/09/20 771 889 +174 127
2018/09/19 597 762 -328 018
2018/09/18 925 780 +650 893
2018/09/17 274 887 -54 507
2018/09/16 329 394 -439 903
2018/09/15 769 297 +80 955
2018/09/14 688 342 -120 660
2018/09/13 809 002 -82 758
2018/09/12 891 760 +122 416
2018/09/11 769 344 +258 843
2018/09/10 510 501 -211 950
2018/09/09 722 451 +110 282
2018/09/08 612 169 -140 924
2018/09/07 753 093 +172 413
2018/09/06 580 680 +72 454
2018/09/05 508 226 -130 841
2018/09/03 639 067 +78 275
2018/09/02 560 792 -191 874
2018/09/01 752 666 -1 297
2018/08/30 753 963 +218 032
2018/08/29 535 931 -83 438
2018/08/27 619 369 +403 300
2018/08/26 216 069 -693 441
2018/08/25 909 510 +213 209
2018/08/24 696 301 -75 405
2018/08/23 771 706 +6 051
2018/08/22 765 655

WIDGET FOR YOUR SITE

DOMAINS WITH THE NEAREST RANK

Domain Rank
hentaimovies.pro 347 673
mmovsg.net 347 674
gamium-faq.blogspot.com 347 675
priandoyo.wordpress.com 347 676
englishlessonplan.co.uk 347 677
desko.kg 347 678
jcbmat.com 347 679
salini-impregilo.com 347 680
rosavtotransport.ru 347 681
motionkinetic.net 347 682
visonic.com 347 683

DOMAINS WITH THE NEAREST RANK BY TLD .kg

Domain Rank
tao.kg 342 693
desko.kg 347 678
kyrtag.kg 357 455